sensor_id;sensor_type;location;lat;lon;timestamp;P1;P2;P0
76330;PMS7003;65148;51.912;15.570;2023-02-28T00:11:27;21;15;12
76330;PMS7003;65148;51.912;15.570;2023-02-28T00:26:28;55;43;25
76330;PMS7003;65148;51.912;15.570;2023-02-28T00:41:29;26;22;14
76330;PMS7003;65148;51.912;15.570;2023-02-28T00:56:50;26;21;14
76330;PMS7003;65148;51.912;15.570;2023-02-28T01:11:51;28;24;15
76330;PMS7003;65148;51.912;15.570;2023-02-28T01:26:52;31;27;17
76330;PMS7003;65148;51.912;15.570;2023-02-28T01:41:53;29;23;14
76330;PMS7003;65148;51.912;15.570;2023-02-28T01:57:18;34;30;20
76330;PMS7003;65148;51.912;15.570;2023-02-28T02:43:11;42;38;24
76330;PMS7003;65148;51.912;15.570;2023-02-28T02:58:20;40;31;22
76330;PMS7003;65148;51.912;15.570;2023-02-28T03:29:02;30;29;19
76330;PMS7003;65148;51.912;15.570;2023-02-28T03:59:53;30;27;20
76330;PMS7003;65148;51.912;15.570;2023-02-28T04:14:59;22;18;10
76330;PMS7003;65148;51.912;15.570;2023-02-28T04:30:00;30;24;17
76330;PMS7003;65148;51.912;15.570;2023-02-28T04:45:03;24;23;18
76330;PMS7003;65148;51.912;15.570;2023-02-28T05:00:19;15;10;2
76330;PMS7003;65148;51.912;15.570;2023-02-28T05:15:20;28;25;15
76330;PMS7003;65148;51.912;15.570;2023-02-28T05:30:21;31;27;18
76330;PMS7003;65148;51.912;15.570;2023-02-28T05:45:22;28;25;17
76330;PMS7003;65148;51.912;15.570;2023-02-28T06:00:47;30;29;19
76330;PMS7003;65148;51.912;15.570;2023-02-28T06:15:49;28;24;16
76330;PMS7003;65148;51.912;15.570;2023-02-28T06:30:50;36;32;20
76330;PMS7003;65148;51.912;15.570;2023-02-28T06:45:54;41;29;20
76330;PMS7003;65148;51.912;15.570;2023-02-28T07:01:16;41;31;18
76330;PMS7003;65148;51.912;15.570;2023-02-28T07:16:17;31;27;18
76330;PMS7003;65148;51.912;15.570;2023-02-28T07:31:19;28;25;17
76330;PMS7003;65148;51.912;15.570;2023-02-28T07:46:20;24;21;16
76330;PMS7003;65148;51.912;15.570;2023-02-28T08:01:44;27;24;16
76330;PMS7003;65148;51.912;15.570;2023-02-28T08:16:45;23;19;13
76330;PMS7003;65148;51.912;15.570;2023-02-28T08:31:46;20;16;11
76330;PMS7003;65148;51.912;15.570;2023-02-28T08:46:47;9;7;6
76330;PMS7003;65148;51.912;15.570;2023-02-28T09:02:14;9;6;4
76330;PMS7003;65148;51.912;15.570;2023-02-28T09:17:15;4;3;2
76330;PMS7003;65148;51.912;15.570;2023-02-28T09:32:17;5;5;4
76330;PMS7003;65148;51.912;15.570;2023-02-28T09:47:25;6;6;4
76330;PMS7003;65148;51.912;15.570;2023-02-28T10:02:49;4;4;3
76330;PMS7003;65148;51.912;15.570;2023-02-28T10:18:02;12;11;8
76330;PMS7003;65148;51.912;15.570;2023-02-28T10:33:08;7;5;3
76330;PMS7003;65148;51.912;15.570;2023-02-28T11:03:50;9;9;7
76330;PMS7003;65148;51.912;15.570;2023-02-28T11:18:55;10;6;5
76330;PMS7003;65148;51.912;15.570;2023-02-28T12:35:36;8;8;7
76330;PMS7003;65148;51.912;15.570;2023-02-28T12:50:34;14;10;8
76330;PMS7003;65148;51.912;15.570;2023-02-28T13:21:04;8;6;4
76330;PMS7003;65148;51.912;15.570;2023-02-28T14:05:23;10;9;6
76330;PMS7003;65148;51.912;15.570;2023-02-28T14:20:27;9;6;4
76330;PMS7003;65148;51.912;15.570;2023-02-28T14:35:39;4;4;3
76330;PMS7003;65148;51.912;15.570;2023-02-28T14:50:59;3;3;2
76330;PMS7003;65148;51.912;15.570;2023-02-28T15:06:05;10;9;6
76330;PMS7003;65148;51.912;15.570;2023-02-28T15:21:13;9;9;8
76330;PMS7003;65148;51.912;15.570;2023-02-28T15:36:40;12;12;9
76330;PMS7003;65148;51.912;15.570;2023-02-28T15:51:42;100;74;40
76330;PMS7003;65148;51.912;15.570;2023-02-28T16:06:44;35;28;17
76330;PMS7003;65148;51.912;15.570;2023-02-28T16:21:52;14;12;8
76330;PMS7003;65148;51.912;15.570;2023-02-28T16:52:16;23;18;13
76330;PMS7003;65148;51.912;15.570;2023-02-28T17:07:17;17;14;11
76330;PMS7003;65148;51.912;15.570;2023-02-28T17:22:20;20;17;12
76330;PMS7003;65148;51.912;15.570;2023-02-28T17:37:35;31;26;16
76330;PMS7003;65148;51.912;15.570;2023-02-28T17:52:36;30;28;18
76330;PMS7003;65148;51.912;15.570;2023-02-28T18:07:38;40;34;21
76330;PMS7003;65148;51.912;15.570;2023-02-28T18:22:42;30;23;20
76330;PMS7003;65148;51.912;15.570;2023-02-28T18:38:07;46;41;26
76330;PMS7003;65148;51.912;15.570;2023-02-28T18:53:14;50;43;28
76330;PMS7003;65148;51.912;15.570;2023-02-28T19:08:15;40;33;22
76330;PMS7003;65148;51.912;15.570;2023-02-28T19:23:17;39;31;18
76330;PMS7003;65148;51.912;15.570;2023-02-28T19:38:32;49;42;26
76330;PMS7003;65148;51.912;15.570;2023-02-28T19:53:34;72;57;36
76330;PMS7003;65148;51.912;15.570;2023-02-28T20:08:36;68;54;34
76330;PMS7003;65148;51.912;15.570;2023-02-28T20:23:41;51;42;25
76330;PMS7003;65148;51.912;15.570;2023-02-28T20:39:04;48;41;27
76330;PMS7003;65148;51.912;15.570;2023-02-28T20:54:06;48;38;26
76330;PMS7003;65148;51.912;15.570;2023-02-28T21:09:11;63;51;31
76330;PMS7003;65148;51.912;15.570;2023-02-28T21:24:15;31;18;2
76330;PMS7003;65148;51.912;15.570;2023-02-28T21:39:32;52;37;21
76330;PMS7003;65148;51.912;15.570;2023-02-28T21:54:33;47;36;20
76330;PMS7003;65148;51.912;15.570;2023-02-28T22:09:36;43;35;22
76330;PMS7003;65148;51.912;15.570;2023-02-28T22:24:37;47;40;25
76330;PMS7003;65148;51.912;15.570;2023-02-28T22:40:01;52;46;30
76330;PMS7003;65148;51.912;15.570;2023-02-28T22:55:04;49;37;23
76330;PMS7003;65148;51.912;15.570;2023-02-28T23:10:08;61;46;30
76330;PMS7003;65148;51.912;15.570;2023-02-28T23:25:12;48;39;25
76330;PMS7003;65148;51.912;15.570;2023-02-28T23:40:35;46;39;24
76330;PMS7003;65148;51.912;15.570;2023-02-28T23:55:36;41;37;23
